Time;durP1;ratioP1;P1;durP2;ratioP2;P2;SDS_P1;SDS_P2;PMS_P1;PMS_P2;Temp;Humidity;BMP_temperature;BMP_pressure;BME280_temperature;BME280_humidity;BME280_pressure;Samples;Min_cycle;Max_cycle;Signal;HPM_P1;HPM_P2
2021/11/25 00:01:24;;;;;;;2.53;2.33;;;-0.60;99.90;;;;;;5052232;28;20197;-42
2021/11/25 00:03:50;;;;;;;2.47;2.27;;;-0.70;99.90;;;;;;5052350;28;20194;-42
2021/11/25 00:06:15;;;;;;;2.70;2.50;;;-0.70;99.90;;;;;;5052130;28;20646;-45
2021/11/25 00:08:41;;;;;;;3.33;2.73;;;-0.70;99.90;;;;;;5052417;28;20185;-41
2021/11/25 00:11:07;;;;;;;2.67;2.30;;;-0.70;99.90;;;;;;5052383;28;20612;-42
2021/11/25 00:13:33;;;;;;;3.17;2.70;;;-0.70;99.90;;;;;;5051915;28;20195;-46
2021/11/25 00:15:59;;;;;;;3.00;2.67;;;-0.80;99.90;;;;;;5051880;28;20634;-42
2021/11/25 00:18:24;;;;;;;2.63;2.43;;;-0.80;99.90;;;;;;5051968;28;20178;-44
2021/11/25 00:20:50;;;;;;;3.10;2.60;;;-0.80;99.90;;;;;;5052205;28;20539;-43
2021/11/25 00:23:16;;;;;;;3.13;2.83;;;-0.90;99.90;;;;;;5051644;28;20252;-41
2021/11/25 00:25:42;;;;;;;2.87;2.60;;;-0.90;99.90;;;;;;5051794;28;20178;-43
2021/11/25 00:28:07;;;;;;;3.30;2.80;;;-0.90;99.90;;;;;;5045090;28;20285;-45
2021/11/25 00:30:33;;;;;;;2.80;2.60;;;-1.00;99.90;;;;;;5051575;28;20233;-45
2021/11/25 00:32:59;;;;;;;3.17;2.73;;;-1.00;99.90;;;;;;5051885;28;20198;-41
2021/11/25 00:35:24;;;;;;;3.90;2.63;;;-1.10;99.90;;;;;;5051294;28;20206;-42
2021/11/25 00:37:50;;;;;;;3.33;2.77;;;-1.10;99.90;;;;;;5051666;28;20180;-46
2021/11/25 00:40:18;;;;;;;4.70;2.17;;;-1.20;99.90;;;;;;5051376;28;20210;-46
2021/11/25 00:42:46;;;;;;;3.27;2.87;;;-1.30;99.90;;;;;;5056405;23;20754;-95
2021/11/25 00:45:14;;;;;;;3.57;2.50;;;-0.30;99.90;;;;;;5032104;28;20450;-91
2021/11/25 00:47:42;;;;;;;2.77;2.40;;;-0.70;99.90;;;;;;5032704;28;20424;-92
2021/11/25 00:50:09;;;;;;;2.80;2.53;;;-0.20;99.90;;;;;;5032742;28;20434;-92
2021/11/25 00:52:35;;;;;;;2.80;2.47;;;-1.30;99.90;;;;;;5029060;28;20434;-93
2021/11/25 00:55:01;;;;;;;3.50;2.50;;;-1.30;99.90;;;;;;5030068;28;20454;-92
2021/11/25 00:57:27;;;;;;;3.00;2.43;;;-1.20;99.90;;;;;;5029609;28;20207;-92
2021/11/25 00:59:56;;;;;;;3.17;2.20;;;-0.40;99.90;;;;;;5032475;28;20179;-91
2021/11/25 01:02:21;;;;;;;2.43;2.23;;;-1.30;99.90;;;;;;5032157;28;20194;-91
2021/11/25 01:04:49;;;;;;;2.57;2.30;;;-1.30;99.90;;;;;;5032034;28;20470;-91
2021/11/25 01:07:15;;;;;;;3.23;2.13;;;-0.20;99.90;;;;;;5032535;28;20203;-90
2021/11/25 01:09:40;;;;;;;2.67;2.47;;;-0.40;99.90;;;;;;5032682;28;20450;-91
2021/11/25 01:12:07;;;;;;;2.83;2.30;;;-1.10;99.90;;;;;;5032492;28;20803;-91
2021/11/25 01:14:35;;;;;;;2.50;2.30;;;-1.40;99.90;;;;;;5032132;28;20187;-91
2021/11/25 01:17:01;;;;;;;2.67;2.40;;;-0.80;99.90;;;;;;5032167;28;20473;-92
2021/11/25 01:19:27;;;;;;;4.17;2.70;;;-1.30;99.90;;;;;;5032218;28;20429;-92
2021/11/25 01:21:55;;;;;;;3.07;2.63;;;-0.90;99.90;;;;;;5032201;28;20418;-91
2021/11/25 01:24:21;;;;;;;3.00;2.57;;;-1.40;99.90;;;;;;5032639;28;20172;-90
2021/11/25 01:26:47;;;;;;;3.10;2.57;;;-0.20;99.90;;;;;;5032488;28;20457;-92
2021/11/25 01:29:13;;;;;;;3.27;2.73;;;-1.30;99.90;;;;;;5032211;28;20186;-91
2021/11/25 01:31:44;;;;;;;2.40;2.20;;;-0.20;99.90;;;;;;5032385;28;20515;-91
2021/11/25 01:34:10;;;;;;;2.87;2.43;;;-1.40;99.90;;;;;;5032261;28;20497;-94
2021/11/25 01:36:49;;;;;;;3.00;2.70;;;-1.40;99.90;;;;;;5032393;28;20430;-92
2021/11/25 01:39:19;;;;;;;2.93;2.40;;;-0.50;99.90;;;;;;5032221;28;20769;-93
2021/11/25 01:41:47;;;;;;;3.73;2.90;;;-1.50;99.90;;;;;;5031993;28;20421;-94
2021/11/25 01:44:13;;;;;;;2.60;2.27;;;-0.30;99.90;;;;;;5031621;28;20496;-91
2021/11/25 01:46:44;;;;;;;2.80;2.60;;;-0.60;99.90;;;;;;5034436;28;20862;-91
2021/11/25 01:49:10;;;;;;;2.87;2.40;;;-0.20;99.90;;;;;;5027135;28;20425;-91
2021/11/25 01:51:38;;;;;;;2.33;2.13;;;-0.50;99.90;;;;;;5034464;28;20419;-93
2021/11/25 01:54:04;;;;;;;2.53;2.33;;;-1.60;99.90;;;;;;5031763;28;20435;-92
2021/11/25 01:56:37;;;;;;;3.07;2.67;;;-1.60;99.90;;;;;;5031094;28;20893;-91
2021/11/25 01:59:03;;;;;;;2.30;2.10;;;-0.80;99.90;;;;;;5029544;28;20237;-92
2021/11/25 02:01:35;;;;;;;2.60;2.40;;;-0.40;99.90;;;;;;5029056;28;20932;-91
2021/11/25 02:04:03;;;;;;;2.80;2.50;;;-0.60;99.90;;;;;;5032070;28;20206;-91
2021/11/25 02:06:30;;;;;;;2.27;2.07;;;-1.70;99.90;;;;;;5031402;28;20560;-91
2021/11/25 02:08:57;;;;;;;2.60;2.40;;;-0.90;99.90;;;;;;5032531;28;20414;-91
2021/11/25 02:11:23;;;;;;;2.60;2.30;;;-0.70;99.90;;;;;;5035424;28;20472;-91
2021/11/25 02:13:49;;;;;;;2.80;2.50;;;-1.70;99.90;;;;;;5035528;28;20485;-91
2021/11/25 02:16:14;;;;;;;2.90;2.60;;;-1.70;99.90;;;;;;5027864;28;20528;-93
2021/11/25 02:18:43;;;;;;;2.80;2.37;;;-0.60;99.90;;;;;;5033872;28;20187;-92
2021/11/25 02:21:09;;;;;;;2.77;2.27;;;-1.70;99.90;;;;;;5034940;28;20187;-90
2021/11/25 02:23:35;;;;;;;3.00;2.47;;;-0.60;99.90;;;;;;5035240;28;20784;-91
2021/11/25 02:26:07;;;;;;;3.17;2.77;;;-1.00;99.90;;;;;;5034728;28;20234;-92
2021/11/25 02:28:37;;;;;;;2.80;2.60;;;-0.70;99.90;;;;;;5035352;28;20630;-92
2021/11/25 02:31:04;;;;;;;3.00;2.70;;;-0.90;99.90;;;;;;5035539;28;21022;-90
2021/11/25 02:33:30;;;;;;;2.97;2.67;;;-1.00;99.90;;;;;;5031823;28;20456;-92
2021/11/25 02:35:56;;;;;;;3.97;2.73;;;-0.90;99.90;;;;;;5035036;28;20427;-90
2021/11/25 02:38:22;;;;;;;2.97;2.67;;;-1.50;99.90;;;;;;5034661;28;20422;-90
2021/11/25 02:40:51;;;;;;;3.87;3.00;;;-0.50;99.90;;;;;;5034873;28;20584;-92
2021/11/25 02:43:24;;;;;;;3.33;2.70;;;-0.90;99.90;;;;;;5034247;28;20434;-92
2021/11/25 02:45:58;;;;;;;3.00;2.70;;;-0.40;99.90;;;;;;5034539;28;20520;-92
2021/11/25 02:48:28;;;;;;;3.33;2.83;;;-0.30;99.90;;;;;;5034551;28;20505;-89
2021/11/25 02:50:57;;;;;;;3.10;2.80;;;-0.40;99.90;;;;;;5027148;28;20427;-91
2021/11/25 02:53:30;;;;;;;3.23;2.67;;;-1.20;99.90;;;;;;5034459;28;20426;-92
2021/11/25 02:56:05;;;;;;;2.93;2.47;;;-1.20;99.90;;;;;;5034439;28;20426;-92
2021/11/25 02:58:31;;;;;;;3.43;2.77;;;-0.10;99.90;;;;;;5034535;28;20513;-91
2021/11/25 03:01:08;;;;;;;3.20;2.60;;;-0.50;99.90;;;;;;5034669;28;20514;-90
2021/11/25 03:03:34;;;;;;;3.30;2.60;;;-1.10;99.90;;;;;;5034218;28;20834;-92
2021/11/25 03:06:00;;;;;;;3.37;2.80;;;-0.20;99.90;;;;;;5034319;28;20519;-92
2021/11/25 03:08:25;;;;;;;2.67;2.30;;;-0.50;99.90;;;;;;5034307;28;20176;-91
2021/11/25 03:11:05;;;;;;;2.97;2.67;;;-0.80;99.90;;;;;;5034260;28;20179;-92
2021/11/25 03:13:32;;;;;;;2.97;2.60;;;-0.80;99.90;;;;;;5034413;28;20176;-92
2021/11/25 03:16:02;;;;;;;2.93;2.63;;;0.10;99.90;;;;;;5034612;28;20446;-92
2021/11/25 03:18:29;;;;;;;3.40;2.67;;;-0.70;99.90;;;;;;5034304;28;20496;-92
2021/11/25 03:21:01;;;;;;;2.43;2.23;;;-1.30;99.90;;;;;;5033364;28;20423;-91
2021/11/25 03:23:30;;;;;;;3.90;2.90;;;-0.60;99.90;;;;;;5033416;28;20426;-91
2021/11/25 03:25:59;;;;;;;3.17;2.70;;;0.60;99.90;;;;;;5034017;28;20458;-91
2021/11/25 03:28:25;;;;;;;2.93;2.53;;;0.60;99.90;;;;;;5033970;28;20457;-91
2021/11/25 03:30:55;;;;;;;4.10;2.83;;;-0.50;99.90;;;;;;5034067;28;20426;-93
2021/11/25 03:33:24;;;;;;;3.17;2.87;;;-0.50;99.90;;;;;;5033972;28;20513;-91
2021/11/25 03:35:50;;;;;;;3.30;3.00;;;0.80;99.90;;;;;;5033688;28;20450;-91
2021/11/25 03:38:16;;;;;;;3.13;2.77;;;-0.40;99.90;;;;;;5033705;28;20441;-91
2021/11/25 03:40:42;;;;;;;3.77;3.00;;;-0.20;99.90;;;;;;5033755;28;20176;-91
2021/11/25 03:43:07;;;;;;;3.83;3.23;;;-0.40;99.90;;;;;;5033397;28;20241;-92
2021/11/25 03:45:33;;;;;;;3.93;3.17;;;-0.20;99.90;;;;;;5033366;28;20816;-91
2021/11/25 03:48:00;;;;;;;4.20;3.20;;;-0.30;99.90;;;;;;5033714;28;20259;-91
2021/11/25 03:50:26;;;;;;;3.73;2.90;;;-0.30;99.90;;;;;;5033461;28;20226;-91
2021/11/25 03:53:02;;;;;;;3.53;3.20;;;-0.30;99.90;;;;;;5033504;28;20418;-91
2021/11/25 03:55:28;;;;;;;4.00;3.40;;;0.80;99.90;;;;;;5033091;28;20380;-90
2021/11/25 03:57:54;;;;;;;3.23;2.87;;;0.50;99.90;;;;;;5033125;28;20422;-92
2021/11/25 04:00:21;;;;;;;4.57;2.97;;;-0.20;99.90;;;;;;5033571;28;20211;-92
2021/11/25 04:02:51;;;;;;;4.10;3.00;;;-0.10;99.90;;;;;;5033312;28;20237;-90
2021/11/25 04:05:17;;;;;;;3.90;3.03;;;-0.20;99.90;;;;;;5033186;28;20513;-92
2021/11/25 04:07:45;;;;;;;3.40;2.97;;;0.00;99.90;;;;;;5033186;28;20414;-90
2021/11/25 04:10:12;;;;;;;4.10;2.93;;;0.60;99.90;;;;;;5033514;28;20415;-92
2021/11/25 04:12:39;;;;;;;3.70;3.20;;;0.50;99.90;;;;;;5033375;28;20776;-92
2021/11/25 04:15:06;;;;;;;3.93;2.80;;;-0.20;99.90;;;;;;5032959;28;20450;-91
2021/11/25 04:17:32;;;;;;;3.77;3.20;;;-0.20;99.90;;;;;;5033055;28;20414;-92
2021/11/25 04:20:06;;;;;;;3.17;2.83;;;0.60;99.90;;;;;;5033114;28;20418;-90
2021/11/25 04:22:33;;;;;;;3.53;2.80;;;-0.30;99.90;;;;;;5032734;28;20641;-91
2021/11/25 04:24:59;;;;;;;3.37;2.80;;;-0.30;99.90;;;;;;5032923;28;20967;-92
2021/11/25 04:27:25;;;;;;;3.10;2.80;;;-0.30;99.90;;;;;;5032831;28;20440;-91
2021/11/25 04:38:21;;;;;;;3.67;2.70;;;0.00;99.90;;;;;;4972935;28;20417;-93
2021/11/25 04:41:00;;;;;;;3.17;2.70;;;-0.40;99.90;;;;;;4956839;28;20424;-91
2021/11/25 04:43:27;;;;;;;2.90;2.60;;;-0.40;99.90;;;;;;4956880;28;20433;-92
2021/11/25 04:45:55;;;;;;;2.70;2.30;;;0.10;99.90;;;;;;4956127;28;20527;-92
2021/11/25 04:48:23;;;;;;;3.77;2.40;;;-0.30;99.90;;;;;;4956879;28;20942;-91
2021/11/25 04:51:02;;;;;;;3.00;2.70;;;-0.50;99.90;;;;;;4956545;28;20425;-91
2021/11/25 04:53:27;;;;;;;3.73;2.70;;;0.00;99.90;;;;;;4956731;28;20405;-91
2021/11/25 04:55:54;;;;;;;3.23;2.60;;;-0.50;99.90;;;;;;4956498;28;20993;-91
2021/11/25 04:58:19;;;;;;;3.37;2.80;;;-0.30;99.90;;;;;;4956531;28;20178;-90
2021/11/25 05:00:46;;;;;;;3.03;2.73;;;-0.40;99.90;;;;;;4956387;28;21007;-92
2021/11/25 05:03:12;;;;;;;3.40;2.60;;;0.60;99.90;;;;;;4956738;28;20263;-92
2021/11/25 05:05:39;;;;;;;2.97;2.57;;;0.60;99.90;;;;;;4957732;28;20494;-91
2021/11/25 05:08:05;;;;;;;2.77;2.47;;;0.00;99.90;;;;;;4959072;28;20445;-92
2021/11/25 05:10:31;;;;;;;2.80;2.40;;;0.10;99.90;;;;;;4957477;28;20911;-90
2021/11/25 05:12:57;;;;;;;2.83;2.40;;;0.90;99.90;;;;;;4956874;28;20436;-91
2021/11/25 05:15:23;;;;;;;2.90;2.50;;;0.00;99.90;;;;;;5017585;28;20188;-91
2021/11/25 05:17:50;;;;;;;2.83;2.53;;;-0.30;99.90;;;;;;5032493;28;20509;-91
2021/11/25 05:20:16;;;;;;;3.37;2.70;;;0.60;99.90;;;;;;5032502;28;20179;-90
2021/11/25 05:22:44;;;;;;;2.90;2.27;;;-0.10;99.90;;;;;;5032496;28;20411;-92
2021/11/25 05:25:12;;;;;;;2.50;2.30;;;-0.20;99.90;;;;;;5031674;28;20257;-93
2021/11/25 05:27:38;;;;;;;2.87;2.57;;;-0.20;99.90;;;;;;5032214;28;20502;-91
2021/11/25 05:30:07;;;;;;;2.97;2.60;;;0.60;99.90;;;;;;5032396;28;20524;-91
2021/11/25 05:32:33;;;;;;;4.70;3.00;;;-0.20;99.90;;;;;;5032135;28;20186;-91
2021/11/25 05:34:58;;;;;;;3.23;2.77;;;-0.20;99.90;;;;;;5031899;28;20418;-93
2021/11/25 05:37:24;;;;;;;3.00;2.63;;;0.70;99.90;;;;;;5032389;28;20225;-92
2021/11/25 05:39:50;;;;;;;2.87;2.43;;;-0.10;99.90;;;;;;5031939;28;20642;-91
2021/11/25 05:42:17;;;;;;;3.97;2.77;;;-0.10;99.90;;;;;;5032211;28;20657;-92
2021/11/25 05:44:43;;;;;;;3.67;3.00;;;0.90;99.90;;;;;;5033947;28;20187;-93
2021/11/25 05:47:10;;;;;;;3.33;2.63;;;0.90;99.90;;;;;;5035515;28;20443;-92
2021/11/25 05:49:36;;;;;;;3.07;2.47;;;0.60;99.90;;;;;;5035997;28;20178;-91
2021/11/25 05:52:05;;;;;;;4.03;2.80;;;0.20;99.90;;;;;;5035996;28;20410;-90
2021/11/25 05:54:31;;;;;;;3.07;2.53;;;0.00;99.90;;;;;;5035782;28;20176;-91
2021/11/25 05:56:57;;;;;;;4.17;3.07;;;0.00;99.90;;;;;;5035633;28;20472;-90
2021/11/25 05:59:23;;;;;;;2.87;2.50;;;0.80;99.90;;;;;;5035865;28;20492;-92
2021/11/25 06:01:49;;;;;;;3.67;2.80;;;0.90;99.90;;;;;;5035655;28;20176;-90
2021/11/25 06:04:15;;;;;;;3.43;2.60;;;0.40;99.90;;;;;;5035629;28;20505;-91
2021/11/25 06:06:41;;;;;;;3.00;2.70;;;0.20;99.90;;;;;;5035523;28;20549;-92
2021/11/25 06:09:06;;;;;;;2.90;2.57;;;-0.10;99.90;;;;;;5034705;28;20629;-92
2021/11/25 06:11:32;;;;;;;2.97;2.30;;;0.70;99.90;;;;;;5035051;28;20649;-93
2021/11/25 06:13:58;;;;;;;3.50;2.70;;;0.30;99.90;;;;;;5034979;28;20179;-91
2021/11/25 06:16:23;;;;;;;3.20;2.60;;;0.60;99.90;;;;;;5034951;28;20344;-92
2021/11/25 06:18:49;;;;;;;3.47;2.60;;;0.10;99.90;;;;;;5035585;28;20183;-91
2021/11/25 06:21:15;;;;;;;3.10;2.60;;;0.10;99.90;;;;;;5034984;28;20262;-91
2021/11/25 06:23:41;;;;;;;3.67;2.87;;;1.20;99.90;;;;;;5034717;28;20209;-92
2021/11/25 06:26:07;;;;;;;3.30;2.67;;;0.40;99.90;;;;;;5034900;28;20208;-91
2021/11/25 06:28:33;;;;;;;3.10;2.80;;;0.20;99.90;;;;;;5034514;28;20498;-92
2021/11/25 06:30:59;;;;;;;3.20;2.50;;;0.20;99.90;;;;;;5035019;28;20453;-92
2021/11/25 06:33:25;;;;;;;3.23;2.83;;;1.10;99.90;;;;;;5034762;28;20267;-90
2021/11/25 06:35:51;;;;;;;3.60;2.63;;;0.20;99.90;;;;;;5035004;28;20186;-91
2021/11/25 06:38:19;;;;;;;3.07;2.70;;;0.20;99.90;;;;;;5034969;28;20415;-92
2021/11/25 06:40:46;;;;;;;4.13;3.07;;;0.90;99.90;;;;;;5035149;28;20426;-92
2021/11/25 06:43:12;;;;;;;3.70;2.90;;;0.40;99.90;;;;;;5035244;28;20804;-92
2021/11/25 06:45:44;;;;;;;3.17;2.70;;;0.10;99.90;;;;;;5034725;28;20478;-90
2021/11/25 06:48:10;;;;;;;3.53;2.90;;;0.30;99.90;;;;;;5035267;28;20518;-91
2021/11/25 06:50:37;;;;;;;3.70;2.93;;;1.20;99.90;;;;;;5034200;28;20429;-92
2021/11/25 06:53:03;;;;;;;5.50;3.17;;;0.70;99.90;;;;;;5034537;28;20987;-92
2021/11/25 06:55:29;;;;;;;4.67;3.23;;;0.30;99.90;;;;;;5033857;28;20512;-91
2021/11/25 06:57:54;;;;;;;3.57;3.03;;;0.90;99.90;;;;;;5034382;28;20497;-91
2021/11/25 07:00:25;;;;;;;4.97;3.23;;;1.10;99.90;;;;;;5052318;23;20589;-52
2021/11/25 07:02:54;;;;;;;3.50;2.87;;;0.30;99.90;;;;;;5020909;28;20208;-44
2021/11/25 07:05:21;;;;;;;4.80;3.37;;;0.30;99.90;;;;;;5029591;28;20462;-44
2021/11/25 07:07:47;;;;;;;4.10;3.10;;;0.40;99.90;;;;;;5033265;28;20417;-49
2021/11/25 07:10:16;;;;;;;4.87;3.07;;;0.40;99.90;;;;;;5038491;28;20433;-45
2021/11/25 07:12:42;;;;;;;4.50;3.23;;;0.40;99.90;;;;;;5053459;28;20515;-45
2021/11/25 07:15:10;;;;;;;4.43;3.73;;;0.40;99.90;;;;;;5053190;28;20437;-45
2021/11/25 07:17:36;;;;;;;4.70;3.70;;;0.40;99.90;;;;;;5052488;28;20414;-47
2021/11/25 07:20:03;;;;;;;4.43;3.40;;;0.50;99.90;;;;;;5053087;28;20426;-51
2021/11/25 07:22:29;;;;;;;5.30;3.43;;;0.50;99.90;;;;;;5053282;28;20185;-45
2021/11/25 07:24:55;;;;;;;5.40;3.93;;;0.50;99.90;;;;;;5052953;28;20447;-44
2021/11/25 07:27:21;;;;;;;6.53;4.23;;;0.60;99.90;;;;;;5053024;28;20437;-44
2021/11/25 07:29:46;;;;;;;5.57;3.70;;;0.50;99.90;;;;;;5053114;28;20441;-47
2021/11/25 07:32:12;;;;;;;4.93;3.40;;;0.60;99.90;;;;;;5052806;28;20171;-44
2021/11/25 07:34:37;;;;;;;5.77;3.97;;;0.60;99.90;;;;;;5048551;28;20263;-43
2021/11/25 07:37:03;;;;;;;5.10;4.00;;;0.60;99.90;;;;;;5052766;28;20593;-45
2021/11/25 07:39:29;;;;;;;4.87;3.70;;;0.60;99.90;;;;;;5052760;28;20171;-41
2021/11/25 07:41:55;;;;;;;5.07;3.73;;;0.60;99.90;;;;;;5053138;28;20266;-48
2021/11/25 07:44:21;;;;;;;5.10;3.83;;;0.70;99.90;;;;;;5051073;28;20217;-47
2021/11/25 07:46:46;;;;;;;5.00;3.67;;;0.70;99.90;;;;;;5054328;28;20179;-48
2021/11/25 07:49:12;;;;;;;5.57;3.90;;;0.70;99.90;;;;;;5051323;28;20700;-50
2021/11/25 07:51:38;;;;;;;7.20;4.53;;;0.70;99.90;;;;;;5051084;28;20198;-50
2021/11/25 07:54:08;;;;;;;5.63;3.53;;;0.70;99.90;;;;;;5051267;28;20171;-46
2021/11/25 07:56:34;;;;;;;5.40;4.03;;;0.80;99.90;;;;;;5050885;28;20191;-51
2021/11/25 07:59:00;;;;;;;5.33;3.80;;;0.80;99.90;;;;;;5042243;28;20418;-44
2021/11/25 08:01:25;;;;;;;5.27;3.77;;;0.80;99.90;;;;;;5051433;28;20488;-46
2021/11/25 08:03:51;;;;;;;5.97;4.10;;;0.80;99.90;;;;;;5057007;28;20673;-44
2021/11/25 08:06:17;;;;;;;5.70;3.87;;;0.80;99.90;;;;;;5061978;28;20531;-51
2021/11/25 08:08:42;;;;;;;5.90;3.70;;;0.80;99.90;;;;;;5055083;28;20180;-49
2021/11/25 08:11:09;;;;;;;5.33;3.70;;;0.90;99.90;;;;;;5051913;28;20685;-45
2021/11/25 08:13:35;;;;;;;5.70;3.83;;;0.90;99.90;;;;;;5052101;28;20194;-49
2021/11/25 08:16:00;;;;;;;5.10;3.90;;;0.90;99.90;;;;;;5051758;28;20449;-45
2021/11/25 08:18:26;;;;;;;7.17;4.67;;;1.00;99.90;;;;;;5052045;28;20537;-45
2021/11/25 08:20:52;;;;;;;4.03;3.23;;;1.00;99.90;;;;;;5052212;28;20673;-46
2021/11/25 08:23:17;;;;;;;6.17;3.70;;;1.10;99.90;;;;;;5051844;28;20625;-47
2021/11/25 08:25:43;;;;;;;6.40;4.13;;;1.10;99.90;;;;;;5051868;28;20225;-45
2021/11/25 08:28:09;;;;;;;4.20;3.10;;;1.10;99.90;;;;;;5051717;28;20217;-45
2021/11/25 08:30:35;;;;;;;5.10;3.77;;;1.10;99.90;;;;;;5052029;28;20426;-45
2021/11/25 08:33:01;;;;;;;5.27;3.67;;;1.20;99.90;;;;;;5051890;28;20171;-51
2021/11/25 08:35:27;;;;;;;5.60;3.93;;;1.30;99.90;;;;;;5051582;28;20452;-45
2021/11/25 08:37:55;;;;;;;5.40;3.80;;;1.30;99.90;;;;;;5051966;28;20417;-47
2021/11/25 08:40:21;;;;;;;6.10;4.03;;;1.30;99.90;;;;;;5051629;28;20421;-48
2021/11/25 08:42:47;;;;;;;5.30;3.77;;;1.30;99.90;;;;;;5051764;28;20413;-45
2021/11/25 08:45:14;;;;;;;5.07;3.93;;;1.30;99.90;;;;;;5050920;28;20187;-49
2021/11/25 08:47:40;;;;;;;6.10;3.93;;;1.40;99.90;;;;;;5051806;28;20413;-46
2021/11/25 08:50:09;;;;;;;5.57;3.77;;;1.40;99.90;;;;;;5051508;28;20430;-45
2021/11/25 08:52:35;;;;;;;5.53;3.87;;;1.40;99.90;;;;;;5051829;28;20171;-50
2021/11/25 08:55:01;;;;;;;6.10;4.27;;;1.40;99.90;;;;;;5049953;28;20540;-46
2021/11/25 08:57:27;;;;;;;6.87;4.20;;;1.50;99.90;;;;;;5051583;28;20202;-45
2021/11/25 08:59:53;;;;;;;5.67;3.97;;;1.50;99.90;;;;;;5051481;28;20608;-48
2021/11/25 09:02:19;;;;;;;5.83;3.80;;;1.50;99.90;;;;;;5051494;28;20405;-47
2021/11/25 09:04:45;;;;;;;5.70;4.13;;;1.50;99.90;;;;;;5051274;28;20220;-45
2021/11/25 09:07:10;;;;;;;6.20;4.33;;;1.60;99.90;;;;;;5051358;28;20171;-46
2021/11/25 09:09:36;;;;;;;5.63;3.97;;;1.60;99.90;;;;;;5053761;28;20258;-45
2021/11/25 09:12:02;;;;;;;6.63;3.87;;;1.60;99.90;;;;;;5057841;28;20173;-44
2021/11/25 09:14:27;;;;;;;5.63;4.07;;;1.70;99.90;;;;;;5040123;28;20208;-45
2021/11/25 09:16:53;;;;;;;6.33;4.10;;;1.70;99.90;;;;;;5050309;28;20992;-49
2021/11/25 09:19:19;;;;;;;5.37;4.10;;;1.70;99.90;;;;;;5052652;28;20557;-50
2021/11/25 09:21:45;;;;;;;5.97;3.93;;;1.80;99.90;;;;;;5055761;28;20191;-47
2021/11/25 09:24:10;;;;;;;5.40;3.77;;;1.80;99.90;;;;;;5055462;28;20170;-47
2021/11/25 09:26:37;;;;;;;6.23;4.20;;;1.80;99.90;;;;;;5055013;28;20784;-51
2021/11/25 09:29:03;;;;;;;5.23;4.10;;;1.90;99.90;;;;;;5055234;28;20183;-45
2021/11/25 09:31:31;;;;;;;9.30;4.93;;;1.90;99.90;;;;;;5055341;28;20429;-45
2021/11/25 09:33:58;;;;;;;6.07;4.20;;;1.90;99.90;;;;;;5055228;28;20452;-45
2021/11/25 09:36:25;;;;;;;5.67;4.00;;;1.90;99.90;;;;;;5045127;28;20457;-49
2021/11/25 09:38:52;;;;;;;6.03;4.03;;;1.90;99.90;;;;;;5038530;28;20500;-45
2021/11/25 09:41:17;;;;;;;5.53;3.87;;;1.90;99.90;;;;;;5045272;28;20801;-48
2021/11/25 09:43:43;;;;;;;8.27;5.23;;;2.00;99.90;;;;;;5050632;28;20410;-46
2021/11/25 09:46:10;;;;;;;6.37;4.03;;;2.20;99.90;;;;;;5052226;28;20186;-44
2021/11/25 09:48:37;;;;;;;5.50;3.77;;;1.80;99.90;;;;;;5051718;28;20266;-44
2021/11/25 09:51:05;;;;;;;6.03;4.30;;;2.00;99.90;;;;;;5053166;28;20583;-48
2021/11/25 09:53:32;;;;;;;6.43;4.20;;;2.00;99.90;;;;;;5054232;28;20421;-44
2021/11/25 09:55:59;;;;;;;5.70;4.07;;;1.90;99.90;;;;;;5052157;28;20534;-47
2021/11/25 09:58:27;;;;;;;7.63;4.60;;;1.70;99.90;;;;;;5050944;28;20409;-46
2021/11/25 10:00:59;;;;;;;7.07;4.50;;;2.20;99.90;;;;;;5034556;28;20442;-48
2021/11/25 10:03:24;;;;;;;7.33;4.37;;;2.00;99.90;;;;;;5034359;28;20494;-47
2021/11/25 10:05:53;;;;;;;7.87;4.97;;;2.00;99.90;;;;;;5050509;28;20457;-51
2021/11/25 10:08:24;;;;;;;9.10;5.50;;;2.10;99.90;;;;;;5054437;28;20167;-48
2021/11/25 10:11:10;;;;;;;9.50;5.53;;;2.00;99.90;;;;;;5054066;28;20954;-50
2021/11/25 10:13:38;;;;;;;8.53;5.53;;;2.10;99.90;;;;;;5048527;28;20432;-47
2021/11/25 10:16:07;;;;;;;8.73;5.97;;;2.00;99.90;;;;;;5048804;28;20998;-43
2021/11/25 10:18:35;;;;;;;8.70;5.73;;;2.00;99.90;;;;;;5054144;28;20420;-44
2021/11/25 10:21:04;;;;;;;7.23;5.00;;;2.00;99.90;;;;;;5053945;28;20432;-46
2021/11/25 10:23:30;;;;;;;9.27;5.80;;;2.00;99.90;;;;;;5054318;28;20524;-43
2021/11/25 10:26:01;;;;;;;7.40;5.43;;;2.00;99.90;;;;;;5053488;28;20433;-47
2021/11/25 10:28:42;;;;;;;8.80;5.47;;;2.00;99.90;;;;;;5054041;28;20422;-50
2021/11/25 10:31:11;;;;;;;8.67;5.53;;;2.00;99.90;;;;;;5053758;28;20799;-48
2021/11/25 10:33:49;;;;;;;7.60;5.37;;;2.00;99.90;;;;;;5053487;28;20460;-42
2021/11/25 10:41:25;;;;;;;8.37;5.30;;;2.00;99.90;;;;;;5058078;28;20528;-46
2021/11/25 10:44:15;;;;;;;7.53;5.03;;;2.00;99.90;;;;;;5053667;28;20424;-47
2021/11/25 10:47:05;;;;;;;9.47;5.50;;;2.10;99.90;;;;;;5061197;28;20874;-49
2021/11/25 10:49:46;;;;;;;8.90;6.10;;;2.10;99.90;;;;;;5051834;28;20421;-45
2021/11/25 10:52:17;;;;;;;7.63;4.73;;;2.10;99.90;;;;;;5053326;28;20776;-45
2021/11/25 10:54:45;;;;;;;7.70;4.93;;;2.10;99.90;;;;;;5053190;28;20418;-42
2021/11/25 10:57:11;;;;;;;9.43;5.83;;;2.10;99.90;;;;;;5053326;28;20414;-50
2021/11/25 10:59:43;;;;;;;10.27;6.40;;;2.10;99.90;;;;;;5053470;28;20243;-47
2021/11/25 11:02:24;;;;;;;10.27;6.60;;;2.10;99.90;;;;;;5053828;28;20206;-50
2021/11/25 11:04:50;;;;;;;8.87;5.73;;;2.00;99.90;;;;;;5052408;28;20795;-45
2021/11/25 11:07:35;;;;;;;7.80;5.20;;;1.80;99.90;;;;;;5053176;28;20421;-46
2021/11/25 11:10:28;;;;;;;9.03;6.10;;;1.80;99.90;;;;;;5052992;28;20479;-48
2021/11/25 11:18:44;;;;;;;7.27;5.20;;;2.20;99.90;;;;;;5010942;28;20814;-49
2021/11/25 11:21:34;;;;;;;7.73;5.10;;;2.10;99.90;;;;;;5011298;28;20455;-45
2021/11/25 11:24:09;;;;;;;7.47;4.80;;;2.00;99.90;;;;;;4997356;28;20473;-46
2021/11/25 11:26:40;;;;;;;6.93;4.80;;;2.20;99.90;;;;;;5010743;28;20925;-45
2021/11/25 11:29:08;;;;;;;7.73;5.07;;;2.30;99.90;;;;;;5010493;28;20424;-50
2021/11/25 11:31:35;;;;;;;6.20;4.27;;;2.30;99.90;;;;;;5015891;28;20521;-51
2021/11/25 11:34:04;;;;;;;6.73;4.50;;;2.30;99.90;;;;;;5009536;28;20429;-51
2021/11/25 11:36:31;;;;;;;8.00;5.00;;;2.40;99.90;;;;;;5010204;28;20491;-47
2021/11/25 11:38:59;;;;;;;7.87;5.20;;;2.30;99.90;;;;;;5030372;28;20648;-48
2021/11/25 11:41:30;;;;;;;5.00;3.57;;;2.40;99.90;;;;;;5022020;28;20427;-46
2021/11/25 11:43:57;;;;;;;8.63;5.83;;;2.40;99.90;;;;;;5029586;28;20461;-45
2021/11/25 11:46:23;;;;;;;7.73;5.57;;;2.40;99.90;;;;;;5037743;28;20417;-49
2021/11/25 11:48:51;;;;;;;7.83;5.03;;;2.40;99.90;;;;;;5057107;28;20951;-45
2021/11/25 11:51:19;;;;;;;6.60;4.53;;;2.50;99.90;;;;;;5043494;28;20442;-52
2021/11/25 11:53:46;;;;;;;6.33;4.40;;;2.50;99.90;;;;;;5045614;28;20179;-44
2021/11/25 11:56:16;;;;;;;6.10;3.90;;;2.50;99.90;;;;;;5047856;28;20511;-44
2021/11/25 11:58:53;;;;;;;6.47;4.00;;;3.60;99.90;;;;;;5050334;28;20175;-46
2021/11/25 12:01:22;;;;;;;5.70;3.90;;;2.60;99.90;;;;;;5051785;28;20712;-44
2021/11/25 12:03:48;;;;;;;6.13;3.80;;;;;;;;;;5052343;28;21880;-46
2021/11/25 12:06:34;;;;;;;6.43;4.33;;;3.10;99.90;;;;;;5051571;28;20175;-49
2021/11/25 12:09:24;;;;;;;7.70;4.97;;;2.50;99.90;;;;;;5045909;28;20190;-48
2021/11/25 12:12:05;;;;;;;10.37;4.63;;;2.70;99.90;;;;;;5051771;28;20299;-44
2021/11/25 12:14:32;;;;;;;17.07;4.90;;;2.80;99.90;;;;;;5032139;28;20286;-48
2021/11/25 12:17:02;;;;;;;12.63;6.07;;;2.80;99.90;;;;;;5047750;28;20766;-47
2021/11/25 12:19:29;;;;;;;14.17;5.43;;;2.70;99.90;;;;;;5038592;28;20175;-48
2021/11/25 12:21:58;;;;;;;9.73;4.53;;;2.80;99.90;;;;;;5044733;28;20434;-47
2021/11/25 12:24:27;;;;;;;9.83;4.70;;;2.40;99.90;;;;;;5041557;28;20460;-44
2021/11/25 12:27:18;;;;;;;10.23;4.33;;;3.00;99.90;;;;;;5043012;28;20207;-45
2021/11/25 12:30:04;;;;;;;11.67;4.73;;;2.70;99.90;;;;;;5051640;28;20879;-46
2021/11/25 12:32:38;;;;;;;7.33;3.90;;;2.70;99.90;;;;;;5051946;28;20417;-46
2021/11/25 12:35:24;;;;;;;6.33;4.03;;;2.60;99.90;;;;;;5053003;28;20890;-44
2021/11/25 12:37:52;;;;;;;7.53;4.20;;;2.80;99.90;;;;;;5055988;28;20225;-45
2021/11/25 12:40:18;;;;;;;8.27;4.37;;;2.70;99.90;;;;;;5055736;28;20187;-45
2021/11/25 12:42:55;;;;;;;7.67;4.03;;;2.70;99.90;;;;;;5051281;28;20175;-44
2021/11/25 12:45:23;;;;;;;9.40;4.23;;;2.70;99.90;;;;;;5050899;28;20309;-47
2021/11/25 12:48:16;;;;;;;11.20;4.97;;;2.70;99.90;;;;;;5051532;28;20406;-44
2021/11/25 12:50:55;;;;;;;14.20;5.10;;;2.70;99.90;;;;;;5051962;28;20191;-41
2021/11/25 12:53:27;;;;;;;9.73;4.27;;;2.70;99.90;;;;;;5051869;28;20538;-46
2021/11/25 12:56:01;;;;;;;9.90;5.83;;;2.80;99.90;;;;;;5051538;28;20441;-43
2021/11/25 12:58:44;;;;;;;11.03;5.17;;;2.70;99.90;;;;;;5051857;28;20692;-45
2021/11/25 13:01:14;;;;;;;14.57;5.87;;;2.60;99.90;;;;;;5077565;23;20232;-48
2021/11/25 13:03:40;;;;;;;10.47;5.73;;;2.70;99.90;;;;;;5022311;28;20549;-49
2021/11/25 13:06:06;;;;;;;13.13;6.97;;;;;;;;;;5027697;28;20183;-48
2021/11/25 13:08:41;;;;;;;8.40;5.60;;;2.50;99.90;;;;;;5031078;28;20207;-41
2021/11/25 13:11:28;;;;;;;9.90;5.00;;;2.70;99.90;;;;;;5031010;28;20457;-41
2021/11/25 13:14:00;;;;;;;7.57;4.73;;;2.30;99.90;;;;;;5012066;28;20415;-43
2021/11/25 13:16:25;;;;;;;9.40;4.70;;;2.40;99.90;;;;;;5011107;28;20457;-42
2021/11/25 13:18:55;;;;;;;10.03;4.80;;;2.00;99.90;;;;;;5016045;28;20497;-43